Pagrindinis puslapis
METAR-TAF:

METAR-TAF

Oro uostai :

Berlevåg, Norvegija

platuma: 70-52N, ilguma: 029-02E, Aukštis: 1 m

Dabartinis oras

Ataskaita buvo paskelbta 25 minutes, ne 10:50 UTC
Vėjas 11 kt iš Vakarų
Temperatūra 10°C
Drėgmė 93%
Slėgis 1013 hPa
Matomumas 10 km arba daugiau
Išsisklaidę debesys ne aukštis 800 ft
Su prošvaistėmis ne aukštis 1200 ft
lietus

METAR: ENBV 221050Z 27011KT 9999 -RA SCT008 BKN012 10/09 Q1013

Laikas: 13:15 (11:15 UTC)

Prognozė

Ataskaita buvo paskelbta 3 valandos ir 15 minutes, ne 08:00 UTC
Prognozė galioja nuo 22 metu 09 UTC su 22 metu 18 UTC
Vėjas 8 kt nuo kintamojo kryptimis
Matomumas 10 km arba daugiau
Mažai debesys ne aukštis 500 ft
Su prošvaistėmis ne aukštis 2000 ft
Laikinai
nuo 22 metu 09 UTC su 22 metu 18 UTC
Vėjas 15 kt iš Vakarų
Matomumas: 4000 m
Su prošvaistėmis ne aukštis 800 ft
lietus, dulksna

TAF: ENBV 220800Z 2209/2218 VRB08KT 9999 FEW005 BKN020 TEMPO 2209/2218 27015KT 4000 RADZ BKN008

Orai ataskaitas ir orų prognozės (METAR, TAF).

turimą stotys yra geltonos ir raudonos taškus žemėlapyje.

Perkelti pele per norėdami pamatyti stoties vardą.

Tada spustelėkite, norėdami matyti oro stebėjimo ir prognozės.

Norėdami pakeisti žemėlapį: spustelėkite ant žalios mygtukų su juodo kryžiaus žemyn,; žalią mygtuką su brūkšneliu, jei norite nutolinti; arba žalių rodyklių gretimoms žemėlapius.


METAR-TAF: